Forestville, Michigan
Current Conditions -  °F | °C
As of 4:15 AM on Saturday 22 Nov 2014 (Local Time) from KBAX Reporting Station
Overcast Overcast  
Wind Chill: 17°   Ceiling: 3700
Heat Index: 27°   Visibility: 10mi
Dew Point: 14°   Wind: 12mph
Humidity: 59%   Direction: 200°SSW
Pressure: 30.12"   Gusts: NA
Location:  43.66°N, 82.61°W
Report Text: KBAX 220915Z AUTO 20010KT 10SM OVC037 M03/M10 A3012 RMK AO2 T10281098
Loading
Personal Weather Stations






























Interactive Weather Map New forecast layout! Learn more

10-Day Weather Forecast

Advertisements
Track Severe Weather on mobile